Cincinnati, Ohio
Traffic Map
Current Weather Conditions
Cincinnati, Ohio
Overcast Haze
Overcast
31°
Feels Like: 31°
Wind Chill: 31° Ceiling: 10000
Heat Index: 31° Visibility: 5mi
Dew Point: 31° Wind: 0mph
Humidity: 100% Direction: ° ()
Pressure: 30.19in Gusts: 0mph
Raw Report DataKLUK 010853Z AUTO 00000KT 5SM BR OVC100 M01/M01 A3019 RMK AO2 SLP228 T10061006 58012
Traffic Incident Summary
Active as of:
Severity:
Category:
InformationThere was an issue retrieving the traffic information for this location. Please try a different location or try again shortly.
Advertisements
Track Severe Weather on mobile